createdAt,value
2022-11-16T00:00:22.513Z,100.00
2022-11-16T00:02:53.197Z,100.00
2022-11-16T00:05:28.177Z,100.00
2022-11-16T00:07:59.035Z,100.00
2022-11-16T00:10:29.448Z,100.00
2022-11-16T00:12:59.883Z,100.00
2022-11-16T00:15:30.362Z,100.00
2022-11-16T00:18:00.740Z,100.00
2022-11-16T00:20:31.154Z,100.00
2022-11-16T00:23:01.529Z,100.00
2022-11-16T00:25:31.849Z,100.00
2022-11-16T00:28:02.246Z,100.00
2022-11-16T00:30:33.335Z,100.00
2022-11-16T00:33:04.478Z,100.00
2022-11-16T00:35:38.608Z,100.00
2022-11-16T00:38:10.246Z,100.00
2022-11-16T00:40:40.935Z,100.00
2022-11-16T00:43:11.395Z,100.00
2022-11-16T00:45:42.939Z,100.00
2022-11-16T00:48:12.291Z,100.00
2022-11-16T00:50:45.061Z,100.00
2022-11-16T00:53:18.362Z,100.00
2022-11-16T00:55:49.693Z,100.00
2022-11-16T00:58:22.056Z,100.00
2022-11-16T01:00:58.785Z,100.00
2022-11-16T01:03:29.433Z,100.00
2022-11-16T01:06:04.270Z,100.00
2022-11-16T01:08:36.530Z,100.00
2022-11-16T01:11:26.057Z,100.00
2022-11-16T01:13:59.583Z,100.00
2022-11-16T01:16:32.487Z,100.00
2022-11-16T01:19:04.083Z,100.00
2022-11-16T01:21:38.131Z,100.00
2022-11-16T01:24:17.682Z,100.00
2022-11-16T01:26:59.659Z,100.00
2022-11-16T01:33:08.151Z,100.00
2022-11-16T01:39:41.150Z,100.00
2022-11-16T01:42:49.004Z,100.00
2022-11-16T01:45:54.010Z,100.00
2022-11-16T01:48:54.045Z,100.00
2022-11-16T01:51:36.382Z,100.00
2022-11-16T01:54:17.351Z,100.00
2022-11-16T02:04:30.630Z,100.00
2022-11-16T02:07:55.823Z,100.00
2022-11-16T02:11:14.037Z,100.00
2022-11-16T02:26:28.816Z,100.00
2022-11-16T02:27:41.638Z,100.00
2022-11-16T02:35:01.272Z,100.00
2022-11-16T02:42:01.425Z,100.00
2022-11-16T02:46:00.329Z,100.00
2022-11-16T02:57:19.416Z,100.00
2022-11-16T03:01:06.783Z,100.00
2022-11-16T03:08:01.301Z,100.00
2022-11-16T03:10:52.707Z,100.00
2022-11-16T03:13:25.710Z,100.00
2022-11-16T03:15:57.647Z,100.00
2022-11-16T03:18:30.093Z,100.00
2022-11-16T03:21:11.522Z,100.00
2022-11-16T03:23:42.281Z,100.00
2022-11-16T03:26:18.000Z,100.00
2022-11-16T03:28:58.126Z,100.00
2022-11-16T03:31:32.290Z,100.00
2022-11-16T03:34:08.948Z,100.00
2022-11-16T03:36:43.353Z,100.00
2022-11-16T03:39:19.970Z,100.00
2022-11-16T03:41:52.897Z,100.00
2022-11-16T03:44:24.163Z,100.00
2022-11-16T03:46:54.749Z,100.00
2022-11-16T03:49:30.733Z,100.00
2022-11-16T03:52:01.416Z,100.00
2022-11-16T03:54:32.608Z,100.00
2022-11-16T03:57:04.431Z,100.00
2022-11-16T03:59:35.538Z,100.00
2022-11-16T04:02:05.907Z,100.00
2022-11-16T04:04:53.936Z,100.00
2022-11-16T04:07:42.538Z,100.00
2022-11-16T04:10:31.689Z,100.00
2022-11-16T04:13:20.527Z,100.00
2022-11-16T04:16:08.268Z,100.00
2022-11-16T04:18:55.810Z,100.00
2022-11-16T04:21:46.971Z,100.00
2022-11-16T04:24:21.105Z,100.00
2022-11-16T04:27:13.187Z,100.00
2022-11-16T04:29:44.651Z,100.00
2022-11-16T04:32:33.391Z,100.00
2022-11-16T04:35:21.685Z,100.00
2022-11-16T04:37:53.528Z,100.00
2022-11-16T04:40:29.666Z,100.00
2022-11-16T04:43:03.268Z,100.00
2022-11-16T04:45:54.771Z,100.00
2022-11-16T04:48:28.010Z,100.00
2022-11-16T04:50:58.731Z,100.00
2022-11-16T04:53:29.409Z,100.00
2022-11-16T04:56:06.770Z,100.00
2022-11-16T04:58:36.482Z,100.00
2022-11-16T05:01:07.313Z,100.00
2022-11-16T05:03:37.985Z,100.00
2022-11-16T05:06:09.272Z,100.00
2022-11-16T05:08:38.523Z,100.00
2022-11-16T05:11:09.429Z,100.00
2022-11-16T05:13:39.917Z,100.00
2022-11-16T05:16:13.261Z,100.00
2022-11-16T05:18:43.904Z,100.00
2022-11-16T05:21:15.031Z,100.00
2022-11-16T05:24:04.186Z,100.00
2022-11-16T05:26:36.394Z,100.00
2022-11-16T05:29:06.840Z,100.00
2022-11-16T05:31:40.472Z,100.00
2022-11-16T05:34:12.784Z,100.00
2022-11-16T05:36:43.360Z,100.00
2022-11-16T05:39:14.840Z,100.00
2022-11-16T05:41:46.186Z,100.00
2022-11-16T05:44:17.737Z,100.00
2022-11-16T05:46:48.716Z,100.00
2022-11-16T05:49:21.796Z,100.00
2022-11-16T05:51:52.571Z,100.00
2022-11-16T05:54:25.846Z,100.00
2022-11-16T06:00:20.565Z,100.00
2022-11-16T06:02:54.217Z,100.00
2022-11-16T06:05:27.954Z,100.00
2022-11-16T06:07:58.493Z,100.00
2022-11-16T06:10:30.700Z,100.00
2022-11-16T06:13:02.441Z,100.00
2022-11-16T06:15:31.315Z,100.00
2022-11-16T06:18:01.936Z,100.00
2022-11-16T06:20:32.929Z,100.00
2022-11-16T06:23:03.374Z,100.00
2022-11-16T06:25:34.717Z,100.00
2022-11-16T06:28:07.853Z,100.00
2022-11-16T06:30:41.914Z,100.00
2022-11-16T06:33:12.532Z,100.00
2022-11-16T06:35:43.193Z,100.00
2022-11-16T06:38:18.311Z,100.00
2022-11-16T06:40:52.653Z,100.00
2022-11-16T06:43:24.471Z,100.00
2022-11-16T06:45:57.755Z,100.00
2022-11-16T06:48:28.149Z,100.00
2022-11-16T06:50:59.698Z,100.00
2022-11-16T06:53:30.462Z,100.00
2022-11-16T06:56:05.614Z,100.00
2022-11-16T06:58:42.563Z,100.00
2022-11-16T07:01:14.230Z,100.00
2022-11-16T07:03:45.685Z,100.00
2022-11-16T07:06:16.414Z,100.00
2022-11-16T07:08:48.286Z,100.00
2022-11-16T07:11:21.613Z,100.00
2022-11-16T07:13:52.551Z,100.00
2022-11-16T07:16:22.991Z,100.00
2022-11-16T07:18:59.954Z,100.00
2022-11-16T07:21:32.700Z,100.00
2022-11-16T07:24:04.764Z,100.00
2022-11-16T07:26:36.384Z,100.00
2022-11-16T07:29:13.729Z,100.00
2022-11-16T07:31:46.358Z,100.00
2022-11-16T07:34:26.978Z,100.00
2022-11-16T07:37:07.292Z,100.00
2022-11-16T07:39:37.843Z,100.00
2022-11-16T07:42:11.695Z,100.00
2022-11-16T07:45:14.989Z,100.00
2022-11-16T07:47:53.243Z,100.00
2022-11-16T07:50:46.815Z,100.00
2022-11-16T07:53:18.888Z,100.00
2022-11-16T07:55:55.240Z,100.00
2022-11-16T07:58:26.430Z,100.00
2022-11-16T08:00:56.090Z,100.00
2022-11-16T08:03:26.527Z,100.00
2022-11-16T08:06:03.636Z,100.00
2022-11-16T08:08:34.819Z,100.00
2022-11-16T08:11:05.702Z,100.00
2022-11-16T08:13:37.769Z,100.00
2022-11-16T08:16:11.876Z,100.00
2022-11-16T08:18:43.599Z,100.00
2022-11-16T08:21:16.776Z,100.00
2022-11-16T08:23:47.914Z,100.00
2022-11-16T08:26:20.390Z,100.00
2022-11-16T08:28:56.326Z,100.00
2022-11-16T08:31:31.366Z,100.00
2022-11-16T08:34:18.550Z,100.00
2022-11-16T08:36:52.527Z,100.00
2022-11-16T08:39:26.961Z,100.00
2022-11-16T08:41:57.548Z,100.00
2022-11-16T08:44:28.041Z,100.00
2022-11-16T08:46:59.079Z,100.00
2022-11-16T08:49:38.150Z,100.00
2022-11-16T08:52:08.754Z,100.00
2022-11-16T08:54:41.238Z,100.00
2022-11-16T08:57:11.592Z,100.00
2022-11-16T08:59:42.707Z,100.00
2022-11-16T09:02:15.938Z,100.00
2022-11-16T09:04:46.368Z,100.00
2022-11-16T09:07:16.816Z,100.00
2022-11-16T09:09:47.396Z,100.00
2022-11-16T09:12:17.872Z,100.00
2022-11-16T09:14:48.357Z,100.00
2022-11-16T09:17:22.917Z,100.00
2022-11-16T09:19:53.789Z,100.00
2022-11-16T09:22:24.178Z,100.00
2022-11-16T09:24:54.471Z,100.00
2022-11-16T09:27:24.959Z,100.00
2022-11-16T09:29:55.254Z,100.00
2022-11-16T09:32:26.610Z,100.00
2022-11-16T09:34:55.624Z,100.00
2022-11-16T09:37:26.034Z,100.00
2022-11-16T09:39:58.730Z,100.00
2022-11-16T09:42:39.371Z,100.00
2022-11-16T09:45:17.628Z,100.00
2022-11-16T09:47:52.857Z,100.00
2022-11-16T09:50:32.478Z,100.00
2022-11-16T09:53:13.464Z,100.00
2022-11-16T09:55:49.757Z,100.00
2022-11-16T09:58:24.955Z,100.00
2022-11-16T10:01:01.060Z,100.00
2022-11-16T10:03:39.530Z,100.00
2022-11-16T10:06:20.652Z,100.00
2022-11-16T10:08:53.114Z,98.66
2022-11-16T10:12:00.251Z,98.23
2022-11-16T10:15:04.752Z,97.45
2022-11-16T10:17:50.192Z,96.94
2022-11-16T10:20:38.593Z,96.40
2022-11-16T10:23:17.565Z,97.79
2022-11-16T10:25:53.661Z,97.12
2022-11-16T10:28:38.941Z,97.82
2022-11-16T10:31:19.458Z,99.07
2022-11-16T10:33:55.204Z,99.60
2022-11-16T10:36:30.323Z,98.06
2022-11-16T10:39:02.839Z,99.35
2022-11-16T10:41:40.921Z,99.58
2022-11-16T10:44:17.481Z,100.00
2022-11-16T10:46:57.101Z,99.22
2022-11-16T10:49:36.806Z,98.96
2022-11-16T10:52:07.542Z,97.50
2022-11-16T10:54:43.912Z,97.46
2022-11-16T10:57:15.044Z,95.47
2022-11-16T10:59:49.939Z,93.27
2022-11-16T11:02:48.812Z,93.52
2022-11-16T11:05:57.567Z,93.23
2022-11-16T11:08:31.440Z,92.89
2022-11-16T11:11:24.841Z,92.20
2022-11-16T11:14:10.392Z,92.02
2022-11-16T11:16:41.597Z,91.12
2022-11-16T11:19:25.540Z,91.63
2022-11-16T11:22:00.518Z,91.26
2022-11-16T11:24:44.432Z,91.33
2022-11-16T11:27:22.257Z,91.29
2022-11-16T11:29:58.540Z,90.91
2022-11-16T11:32:35.451Z,89.83
2022-11-16T11:35:06.669Z,88.39
2022-11-16T11:37:39.452Z,87.19
2022-11-16T11:40:21.257Z,87.77
2022-11-16T11:43:03.462Z,86.99
2022-11-16T11:45:42.954Z,88.03
2022-11-16T11:48:30.856Z,88.18
2022-11-16T11:51:05.869Z,88.83
2022-11-16T11:53:55.861Z,87.62
2022-11-16T11:56:27.097Z,86.75
2022-11-16T11:58:58.087Z,85.79
2022-11-16T12:02:02.418Z,86.62
2022-11-16T12:05:17.406Z,86.37
2022-11-16T12:08:00.757Z,86.22
2022-11-16T12:10:42.151Z,86.46
2022-11-16T12:13:21.639Z,86.14
2022-11-16T12:16:07.729Z,83.80
2022-11-16T12:18:54.219Z,84.58
2022-11-16T12:21:40.257Z,85.08
2022-11-16T12:24:34.503Z,83.88
2022-11-16T12:27:16.370Z,84.56
2022-11-16T12:29:58.312Z,85.09
2022-11-16T12:32:47.002Z,83.77
2022-11-16T12:35:34.649Z,81.57
2022-11-16T12:38:24.826Z,79.71
2022-11-16T12:40:59.992Z,80.18
2022-11-16T12:43:38.102Z,80.84
2022-11-16T12:46:18.816Z,79.65
2022-11-16T12:49:32.081Z,79.30
2022-11-16T12:52:19.102Z,80.27
2022-11-16T12:55:27.262Z,80.46
2022-11-16T12:58:11.311Z,78.86
2022-11-16T13:00:56.694Z,79.34
2022-11-16T13:03:36.156Z,79.18
2022-11-16T13:06:10.642Z,79.66
2022-11-16T13:08:50.918Z,79.80
2022-11-16T13:11:24.840Z,79.37
2022-11-16T13:14:01.338Z,79.02
2022-11-16T13:16:32.204Z,78.71
2022-11-16T13:19:05.015Z,77.94
2022-11-16T13:21:44.520Z,79.40
2022-11-16T13:24:34.105Z,79.50
2022-11-16T13:27:19.355Z,80.47
2022-11-16T13:29:58.334Z,80.70
2022-11-16T13:32:45.123Z,79.50
2022-11-16T13:35:18.410Z,80.20
2022-11-16T13:37:50.701Z,76.50
2022-11-16T13:40:37.710Z,75.78
2022-11-16T13:43:17.985Z,76.27
2022-11-16T13:45:57.946Z,76.94
2022-11-16T13:48:34.358Z,75.53
2022-11-16T13:51:09.132Z,75.89
2022-11-16T13:56:50.905Z,75.25
2022-11-16T13:59:27.462Z,73.71
2022-11-16T14:02:00.079Z,72.10
2022-11-16T14:04:57.854Z,69.02
2022-11-16T14:07:42.868Z,70.00
2022-11-16T14:10:34.694Z,71.04
2022-11-16T14:13:05.961Z,70.43
2022-11-16T14:15:36.489Z,71.37
2022-11-16T14:18:36.832Z,71.35
2022-11-16T14:21:17.345Z,71.75
2022-11-16T14:24:07.955Z,71.76
2022-11-16T14:26:53.101Z,72.17
2022-11-16T14:29:55.897Z,73.15
2022-11-16T14:32:30.124Z,73.95
2022-11-16T14:35:18.500Z,73.99
2022-11-16T14:38:00.415Z,74.00
2022-11-16T14:40:31.831Z,74.18
2022-11-16T14:43:16.377Z,74.91
2022-11-16T14:45:53.306Z,74.19
2022-11-16T14:48:26.095Z,74.11
2022-11-16T14:51:07.386Z,75.21
2022-11-16T14:53:45.051Z,75.65
2022-11-16T14:56:17.325Z,76.68
2022-11-16T14:58:55.279Z,77.16
2022-11-16T15:01:28.851Z,78.49
2022-11-16T15:04:03.501Z,79.03
2022-11-16T15:06:41.084Z,79.48
2022-11-16T15:09:18.827Z,79.81
2022-11-16T15:12:08.750Z,79.97
2022-11-16T15:14:43.833Z,79.93
2022-11-16T15:17:19.102Z,80.33
2022-11-16T15:19:57.802Z,80.90
2022-11-16T15:22:30.329Z,81.17
2022-11-16T15:25:02.580Z,81.30
2022-11-16T15:27:38.056Z,81.26
2022-11-16T15:30:19.418Z,81.70
2022-11-16T15:32:51.565Z,82.20
2022-11-16T15:35:24.671Z,82.99
2022-11-16T15:38:05.749Z,83.57
2022-11-16T15:40:37.148Z,84.30
2022-11-16T15:43:08.892Z,84.36
2022-11-16T15:45:40.258Z,85.25
2022-11-16T15:48:13.217Z,86.06
2022-11-16T15:50:56.976Z,86.79
2022-11-16T15:53:39.438Z,87.71
2022-11-16T15:56:13.692Z,88.40
2022-11-16T15:58:44.992Z,88.96
2022-11-16T16:01:14.799Z,89.53
2022-11-16T16:03:55.607Z,90.18
2022-11-16T16:06:47.682Z,90.64
2022-11-16T16:09:25.931Z,91.53
2022-11-16T16:11:58.116Z,92.00
2022-11-16T16:14:30.780Z,92.22
2022-11-16T16:17:02.033Z,92.88
2022-11-16T16:19:41.450Z,93.12
2022-11-16T16:22:26.378Z,93.58
2022-11-16T16:24:56.968Z,94.10
2022-11-16T16:27:30.215Z,94.43
2022-11-16T16:30:04.728Z,94.32
2022-11-16T16:32:36.885Z,95.06
2022-11-16T16:35:16.324Z,95.27
2022-11-16T16:37:49.517Z,95.19
2022-11-16T16:40:20.820Z,95.08
2022-11-16T16:42:50.874Z,94.83
2022-11-16T16:45:25.848Z,94.85
2022-11-16T16:47:56.578Z,94.59
2022-11-16T16:50:27.300Z,94.20
2022-11-16T16:52:58.105Z,93.97
2022-11-16T16:55:32.887Z,93.31
2022-11-16T16:58:07.376Z,92.92
2022-11-16T17:00:37.897Z,92.90
2022-11-16T17:03:10.105Z,92.87
2022-11-16T17:05:41.853Z,93.14
2022-11-16T17:08:12.368Z,93.50
2022-11-16T17:10:43.067Z,93.60
2022-11-16T17:13:13.355Z,93.90
2022-11-16T17:15:43.744Z,94.36
2022-11-16T17:18:14.558Z,94.12
2022-11-16T17:20:45.574Z,94.02
2022-11-16T17:23:18.231Z,94.21
2022-11-16T17:25:49.077Z,94.52
2022-11-16T17:28:20.051Z,94.36
2022-11-16T17:30:50.783Z,94.46
2022-11-16T17:33:21.232Z,94.56
2022-11-16T17:36:01.503Z,94.61
2022-11-16T17:38:32.087Z,94.52
2022-11-16T17:41:10.494Z,94.73
2022-11-16T17:43:41.979Z,94.49
2022-11-16T17:46:14.489Z,94.59
2022-11-16T17:48:47.085Z,94.75
2022-11-16T17:51:19.518Z,94.27
2022-11-16T17:53:50.518Z,94.22
2022-11-16T17:56:22.405Z,94.26
2022-11-16T17:58:54.886Z,94.08
2022-11-16T18:01:25.823Z,93.65
2022-11-16T18:03:56.539Z,93.63
2022-11-16T18:06:27.874Z,93.54
2022-11-16T18:08:57.736Z,93.45
2022-11-16T18:11:29.471Z,93.38
2022-11-16T18:14:01.420Z,93.48
2022-11-16T18:16:33.800Z,93.50
2022-11-16T18:19:06.210Z,93.31
2022-11-16T18:21:42.561Z,93.42
2022-11-16T18:24:14.113Z,93.11
2022-11-16T18:26:44.692Z,93.14
2022-11-16T18:29:15.964Z,92.83
2022-11-16T18:31:44.947Z,92.85
2022-11-16T18:34:16.790Z,92.76
2022-11-16T18:36:48.873Z,92.63
2022-11-16T18:39:19.523Z,92.58
2022-11-16T18:41:55.155Z,92.13
2022-11-16T18:44:25.971Z,91.95
2022-11-16T18:46:56.405Z,92.05
2022-11-16T18:49:27.619Z,92.14
2022-11-16T18:51:58.115Z,92.16
2022-11-16T18:54:29.098Z,92.15
2022-11-16T18:57:00.926Z,91.55
2022-11-16T18:59:31.376Z,91.60
2022-11-16T19:02:02.027Z,91.55
2022-11-16T19:04:32.729Z,91.24
2022-11-16T19:07:03.363Z,91.30
2022-11-16T19:09:33.804Z,91.17
2022-11-16T19:12:04.459Z,91.00
2022-11-16T19:14:34.937Z,91.15
2022-11-16T19:17:05.943Z,91.07
2022-11-16T19:19:36.501Z,91.39
2022-11-16T19:22:06.913Z,91.62
2022-11-16T19:24:37.251Z,91.74
2022-11-16T19:27:09.754Z,91.95
2022-11-16T19:29:40.675Z,91.54
2022-11-16T19:32:11.116Z,91.65
2022-11-16T19:34:41.823Z,91.54
2022-11-16T19:37:12.258Z,91.25
2022-11-16T19:39:42.642Z,91.20
2022-11-16T19:42:17.404Z,91.00
2022-11-16T19:44:47.867Z,91.18
2022-11-16T19:47:18.833Z,90.96
2022-11-16T19:49:50.045Z,90.93
2022-11-16T19:52:20.542Z,90.75
2022-11-16T19:54:50.905Z,90.59
2022-11-16T19:57:21.408Z,90.41
2022-11-16T19:59:52.033Z,90.46
2022-11-16T20:02:22.663Z,90.32
2022-11-16T20:04:54.304Z,90.32
2022-11-16T20:07:24.831Z,90.12
2022-11-16T20:09:55.548Z,89.86
2022-11-16T20:12:25.981Z,89.69
2022-11-16T20:14:56.488Z,89.26
2022-11-16T20:17:27.316Z,89.26
2022-11-16T20:19:57.954Z,89.32
2022-11-16T20:22:28.225Z,89.36
2022-11-16T20:24:58.944Z,89.05
2022-11-16T20:27:29.330Z,88.74
2022-11-16T20:30:01.753Z,89.00
2022-11-16T20:32:35.601Z,88.94
2022-11-16T20:35:06.885Z,88.93
2022-11-16T20:37:36.595Z,89.17
2022-11-16T20:40:08.763Z,89.35
2022-11-16T20:42:39.322Z,89.58
2022-11-16T20:45:12.592Z,89.53
2022-11-16T20:47:43.605Z,89.61
2022-11-16T20:50:14.038Z,89.83
2022-11-16T20:52:51.432Z,89.95
2022-11-16T20:55:23.426Z,90.00
2022-11-16T20:57:54.125Z,90.45
2022-11-16T21:00:24.809Z,90.63
2022-11-16T21:02:55.476Z,90.88
2022-11-16T21:05:25.889Z,90.89
2022-11-16T21:07:59.450Z,91.13
2022-11-16T21:10:31.022Z,91.38
2022-11-16T21:13:18.993Z,91.36
2022-11-16T21:15:57.904Z,91.42
2022-11-16T21:18:30.896Z,91.34
2022-11-16T21:21:02.983Z,91.52
2022-11-16T21:23:35.059Z,91.44
2022-11-16T21:26:07.399Z,91.18
2022-11-16T21:28:37.889Z,91.02
2022-11-16T21:31:10.547Z,90.98
2022-11-16T21:33:41.097Z,91.01
2022-11-16T21:36:16.168Z,91.10
2022-11-16T21:38:48.839Z,90.68
2022-11-16T21:41:20.735Z,90.96
2022-11-16T21:43:51.571Z,90.30
2022-11-16T21:46:24.751Z,90.18
2022-11-16T21:48:56.490Z,90.16
2022-11-16T21:51:28.072Z,90.03
2022-11-16T21:53:58.398Z,90.03
2022-11-16T21:56:28.780Z,90.00
2022-11-16T21:59:00.087Z,89.96
2022-11-16T22:01:51.232Z,89.72
2022-11-16T22:04:39.351Z,89.83
2022-11-16T22:07:34.418Z,89.72
2022-11-16T22:10:06.893Z,89.51
2022-11-16T22:12:39.369Z,89.31
2022-11-16T22:15:11.156Z,89.38
2022-11-16T22:17:45.325Z,89.42
2022-11-16T22:20:15.615Z,89.32
2022-11-16T22:22:46.281Z,89.26
2022-11-16T22:25:16.924Z,89.20
2022-11-16T22:28:19.279Z,88.81
2022-11-16T22:30:41.050Z,88.66
2022-11-16T22:33:11.988Z,88.52
2022-11-16T22:35:42.376Z,87.74
2022-11-16T22:38:12.992Z,87.87
2022-11-16T22:40:49.101Z,87.75
2022-11-16T22:43:19.578Z,87.04
2022-11-16T22:45:50.265Z,87.50
2022-11-16T22:48:20.728Z,87.09
2022-11-16T22:50:51.409Z,86.77
2022-11-16T22:53:21.781Z,86.40
2022-11-16T22:55:52.120Z,85.60
2022-11-16T22:58:22.554Z,85.40
2022-11-16T23:00:53.918Z,85.25
2022-11-16T23:03:22.925Z,84.91
2022-11-16T23:05:53.369Z,84.81
2022-11-16T23:08:25.609Z,84.57
2022-11-16T23:11:21.035Z,84.49
2022-11-16T23:14:09.880Z,85.06
2022-11-16T23:16:40.584Z,84.74
2022-11-16T23:19:26.248Z,84.58
2022-11-16T23:22:10.888Z,83.91
2022-11-16T23:24:58.688Z,84.28
2022-11-16T23:27:34.637Z,84.17
2022-11-16T23:30:12.451Z,83.77
2022-11-16T23:32:43.501Z,84.13
2022-11-16T23:35:14.400Z,84.69
2022-11-16T23:37:56.263Z,84.58
2022-11-16T23:40:28.438Z,84.68
2022-11-16T23:43:16.899Z,84.32
2022-11-16T23:45:47.647Z,84.53
2022-11-16T23:48:19.351Z,84.51
2022-11-16T23:50:50.051Z,84.58
2022-11-16T23:53:20.626Z,84.24
2022-11-16T23:55:51.075Z,84.61
2022-11-16T23:58:21.466Z,84.92
